sensor_id;sensor_type;location;lat;lon;timestamp;pressure;altitude;pressure_sealevel;temperature;humidity
74334;BME280;62753;40.394;-80.022;2023-03-01T00:00:24;97227.94;;;12.14;30.74
74334;BME280;62753;40.394;-80.022;2023-03-01T00:02:50;97231.82;;;12.39;30.93
74334;BME280;62753;40.394;-80.022;2023-03-01T00:05:15;97226.83;;;12.18;30.66
74334;BME280;62753;40.394;-80.022;2023-03-01T00:07:40;97226.34;;;12.49;30.16
74334;BME280;62753;40.394;-80.022;2023-03-01T00:10:06;97228.95;;;12.49;30.40
74334;BME280;62753;40.394;-80.022;2023-03-01T00:12:32;97232.28;;;12.42;30.59
74334;BME280;62753;40.394;-80.022;2023-03-01T00:14:56;97240.58;;;12.47;31.16
74334;BME280;62753;40.394;-80.022;2023-03-01T00:17:22;97239.91;;;12.40;30.48
74334;BME280;62753;40.394;-80.022;2023-03-01T00:19:47;97236.17;;;12.50;30.08
74334;BME280;62753;40.394;-80.022;2023-03-01T00:22:13;97238.69;;;12.50;30.25
74334;BME280;62753;40.394;-80.022;2023-03-01T00:24:38;97228.49;;;12.34;30.03
74334;BME280;62753;40.394;-80.022;2023-03-01T00:27:03;97224.56;;;12.31;30.60
74334;BME280;62753;40.394;-80.022;2023-03-01T00:29:29;97221.00;;;12.00;30.71
74334;BME280;62753;40.394;-80.022;2023-03-01T00:31:55;97224.28;;;12.39;30.74
74334;BME280;62753;40.394;-80.022;2023-03-01T00:34:20;97233.08;;;12.00;31.14
74334;BME280;62753;40.394;-80.022;2023-03-01T00:36:46;97237.29;;;12.13;31.00
74334;BME280;62753;40.394;-80.022;2023-03-01T00:39:14;97243.47;;;11.89;30.86
74334;BME280;62753;40.394;-80.022;2023-03-01T00:41:37;97242.16;;;12.22;30.96
74334;BME280;62753;40.394;-80.022;2023-03-01T00:44:03;97237.31;;;12.05;31.19
74334;BME280;62753;40.394;-80.022;2023-03-01T00:46:28;97234.59;;;12.25;30.43
74334;BME280;62753;40.394;-80.022;2023-03-01T00:48:54;97239.85;;;12.22;31.37
74334;BME280;62753;40.394;-80.022;2023-03-01T00:51:20;97241.68;;;11.89;31.84
74334;BME280;62753;40.394;-80.022;2023-03-01T00:53:45;97236.72;;;11.87;30.89
74334;BME280;62753;40.394;-80.022;2023-03-01T00:56:12;97238.17;;;11.23;31.59
74334;BME280;62753;40.394;-80.022;2023-03-01T00:58:36;97241.33;;;11.48;31.42
74334;BME280;62753;40.394;-80.022;2023-03-01T01:01:06;97242.79;;;11.99;31.12
74334;BME280;62753;40.394;-80.022;2023-03-01T01:03:27;97250.59;;;11.29;31.70
74334;BME280;62753;40.394;-80.022;2023-03-01T01:05:53;97259.46;;;11.67;31.52
74334;BME280;62753;40.394;-80.022;2023-03-01T01:08:18;97261.69;;;11.58;31.46
74334;BME280;62753;40.394;-80.022;2023-03-01T01:10:44;97251.37;;;12.22;31.36
74334;BME280;62753;40.394;-80.022;2023-03-01T01:13:08;97245.70;;;11.71;31.13
74334;BME280;62753;40.394;-80.022;2023-03-01T01:15:34;97252.82;;;11.65;31.31
74334;BME280;62753;40.394;-80.022;2023-03-01T01:17:59;97254.33;;;11.59;31.53
74334;BME280;62753;40.394;-80.022;2023-03-01T01:20:25;97257.30;;;11.60;31.71
74334;BME280;62753;40.394;-80.022;2023-03-01T01:22:51;97261.26;;;11.27;31.87
74334;BME280;62753;40.394;-80.022;2023-03-01T01:25:16;97265.81;;;11.47;31.84
74334;BME280;62753;40.394;-80.022;2023-03-01T01:27:41;97268.16;;;11.85;31.47
74334;BME280;62753;40.394;-80.022;2023-03-01T01:30:09;97272.32;;;11.77;31.47
74334;BME280;62753;40.394;-80.022;2023-03-01T01:32:31;97274.56;;;11.49;32.22
74334;BME280;62753;40.394;-80.022;2023-03-01T01:34:57;97274.59;;;11.94;32.09
74334;BME280;62753;40.394;-80.022;2023-03-01T01:37:22;97279.15;;;11.44;32.06
74334;BME280;62753;40.394;-80.022;2023-03-01T01:39:48;97281.40;;;11.37;31.79
74334;BME280;62753;40.394;-80.022;2023-03-01T01:42:16;97286.27;;;10.97;32.54
74334;BME280;62753;40.394;-80.022;2023-03-01T01:44:40;97289.02;;;11.71;31.74
74334;BME280;62753;40.394;-80.022;2023-03-01T01:47:06;97294.27;;;11.50;31.87
74334;BME280;62753;40.394;-80.022;2023-03-01T01:49:33;97289.68;;;11.67;31.63
74334;BME280;62753;40.394;-80.022;2023-03-01T01:52:01;97283.74;;;11.37;32.00
74334;BME280;62753;40.394;-80.022;2023-03-01T01:54:23;97281.13;;;11.54;32.28
74334;BME280;62753;40.394;-80.022;2023-03-01T01:56:51;97277.98;;;11.10;32.69
74334;BME280;62753;40.394;-80.022;2023-03-01T01:59:12;97281.37;;;11.42;32.61
74334;BME280;62753;40.394;-80.022;2023-03-01T02:01:37;97280.06;;;11.08;33.32
74334;BME280;62753;40.394;-80.022;2023-03-01T02:04:04;97281.20;;;11.16;32.48
74334;BME280;62753;40.394;-80.022;2023-03-01T02:06:31;97282.37;;;10.84;32.44
74334;BME280;62753;40.394;-80.022;2023-03-01T02:08:53;97285.75;;;10.90;32.28
74334;BME280;62753;40.394;-80.022;2023-03-01T02:11:19;97285.31;;;10.81;32.44
74334;BME280;62753;40.394;-80.022;2023-03-01T02:13:44;97281.65;;;11.21;32.58
74334;BME280;62753;40.394;-80.022;2023-03-01T02:16:12;97285.46;;;11.47;32.68
74334;BME280;62753;40.394;-80.022;2023-03-01T02:18:35;97293.02;;;11.10;32.73
74334;BME280;62753;40.394;-80.022;2023-03-01T02:21:10;97302.54;;;11.33;32.96
74334;BME280;62753;40.394;-80.022;2023-03-01T02:23:27;97304.74;;;10.86;33.33
74334;BME280;62753;40.394;-80.022;2023-03-01T02:25:56;97310.63;;;10.88;33.44
74334;BME280;62753;40.394;-80.022;2023-03-01T02:28:25;97314.15;;;10.60;33.73
74334;BME280;62753;40.394;-80.022;2023-03-01T02:30:45;97319.13;;;10.16;33.86
74334;BME280;62753;40.394;-80.022;2023-03-01T02:33:09;97324.80;;;10.78;33.65
74334;BME280;62753;40.394;-80.022;2023-03-01T02:35:37;97327.37;;;9.65;34.65
74334;BME280;62753;40.394;-80.022;2023-03-01T02:38:01;97325.15;;;10.16;34.26
74334;BME280;62753;40.394;-80.022;2023-03-01T02:40:25;97316.43;;;10.39;34.19
74334;BME280;62753;40.394;-80.022;2023-03-01T02:42:54;97316.08;;;10.13;34.13
74334;BME280;62753;40.394;-80.022;2023-03-01T02:45:17;97311.60;;;10.47;33.94
74334;BME280;62753;40.394;-80.022;2023-03-01T02:47:42;97306.67;;;10.56;34.02
74334;BME280;62753;40.394;-80.022;2023-03-01T02:50:18;97303.54;;;10.24;34.23
74334;BME280;62753;40.394;-80.022;2023-03-01T02:52:41;97308.04;;;9.52;34.65
74334;BME280;62753;40.394;-80.022;2023-03-01T02:55:02;97307.64;;;10.27;34.16
74334;BME280;62753;40.394;-80.022;2023-03-01T02:57:23;97313.37;;;10.04;34.43
74334;BME280;62753;40.394;-80.022;2023-03-01T02:59:50;97311.37;;;9.85;34.78
74334;BME280;62753;40.394;-80.022;2023-03-01T03:02:20;97312.98;;;10.33;34.34
74334;BME280;62753;40.394;-80.022;2023-03-01T03:04:40;97314.69;;;9.97;34.68
74334;BME280;62753;40.394;-80.022;2023-03-01T03:07:05;97310.46;;;10.28;34.71
74334;BME280;62753;40.394;-80.022;2023-03-01T03:09:31;97309.45;;;10.33;34.75
74334;BME280;62753;40.394;-80.022;2023-03-01T03:11:57;97314.55;;;9.33;35.34
74334;BME280;62753;40.394;-80.022;2023-03-01T03:14:22;97312.32;;;9.94;34.74
74334;BME280;62753;40.394;-80.022;2023-03-01T03:16:49;97310.04;;;10.06;34.63
74334;BME280;62753;40.394;-80.022;2023-03-01T03:19:13;97315.71;;;9.65;35.33
74334;BME280;62753;40.394;-80.022;2023-03-01T03:21:38;97315.56;;;9.81;35.01
74334;BME280;62753;40.394;-80.022;2023-03-01T03:24:04;97315.71;;;9.70;34.95
74334;BME280;62753;40.394;-80.022;2023-03-01T03:26:29;97313.72;;;9.55;34.95
74334;BME280;62753;40.394;-80.022;2023-03-01T03:28:54;97317.01;;;9.92;34.52
74334;BME280;62753;40.394;-80.022;2023-03-01T03:31:20;97317.90;;;10.19;34.53
74334;BME280;62753;40.394;-80.022;2023-03-01T03:33:46;97316.99;;;9.93;34.73
74334;BME280;62753;40.394;-80.022;2023-03-01T03:36:16;97308.31;;;9.92;34.82
74334;BME280;62753;40.394;-80.022;2023-03-01T03:38:37;97304.12;;;9.85;34.82
74334;BME280;62753;40.394;-80.022;2023-03-01T03:41:05;97306.07;;;9.94;34.67
74334;BME280;62753;40.394;-80.022;2023-03-01T03:43:28;97303.59;;;9.86;34.96
74334;BME280;62753;40.394;-80.022;2023-03-01T03:45:53;97299.89;;;9.57;35.10
74334;BME280;62753;40.394;-80.022;2023-03-01T03:48:19;97304.03;;;9.72;35.31
74334;BME280;62753;40.394;-80.022;2023-03-01T03:50:48;97306.13;;;9.61;35.07
74334;BME280;62753;40.394;-80.022;2023-03-01T03:53:11;97302.43;;;9.86;34.87
74334;BME280;62753;40.394;-80.022;2023-03-01T03:55:36;97299.69;;;9.54;34.99
74334;BME280;62753;40.394;-80.022;2023-03-01T03:58:02;97299.36;;;9.54;35.48
74334;BME280;62753;40.394;-80.022;2023-03-01T04:00:26;97298.58;;;9.66;35.28
74334;BME280;62753;40.394;-80.022;2023-03-01T04:02:51;97298.97;;;9.86;35.09
74334;BME280;62753;40.394;-80.022;2023-03-01T04:05:18;97296.16;;;9.97;35.35
74334;BME280;62753;40.394;-80.022;2023-03-01T04:07:43;97293.21;;;9.99;35.17
74334;BME280;62753;40.394;-80.022;2023-03-01T04:10:10;97292.78;;;10.02;35.34
74334;BME280;62753;40.394;-80.022;2023-03-01T04:12:34;97290.90;;;9.63;35.71
74334;BME280;62753;40.394;-80.022;2023-03-01T04:14:59;97285.51;;;8.89;37.01
74334;BME280;62753;40.394;-80.022;2023-03-01T04:17:24;97278.49;;;9.12;37.40
74334;BME280;62753;40.394;-80.022;2023-03-01T04:19:50;97274.61;;;8.86;37.53
74334;BME280;62753;40.394;-80.022;2023-03-01T04:22:15;97273.44;;;9.07;38.00
74334;BME280;62753;40.394;-80.022;2023-03-01T04:24:40;97267.27;;;8.24;37.83
74334;BME280;62753;40.394;-80.022;2023-03-01T04:27:06;97262.36;;;8.17;39.03
74334;BME280;62753;40.394;-80.022;2023-03-01T04:29:31;97261.88;;;7.89;39.44
74334;BME280;62753;40.394;-80.022;2023-03-01T04:31:57;97254.38;;;8.13;39.41
74334;BME280;62753;40.394;-80.022;2023-03-01T04:34:22;97250.64;;;8.43;38.20
74334;BME280;62753;40.394;-80.022;2023-03-01T04:36:47;97248.01;;;8.76;38.28
74334;BME280;62753;40.394;-80.022;2023-03-01T04:39:13;97252.77;;;8.45;38.46
74334;BME280;62753;40.394;-80.022;2023-03-01T04:41:39;97249.84;;;8.24;39.23
74334;BME280;62753;40.394;-80.022;2023-03-01T04:44:04;97245.23;;;8.31;39.17
74334;BME280;62753;40.394;-80.022;2023-03-01T04:46:29;97246.35;;;7.55;40.55
74334;BME280;62753;40.394;-80.022;2023-03-01T04:48:54;97243.99;;;7.59;40.64
74334;BME280;62753;40.394;-80.022;2023-03-01T04:51:20;97243.83;;;7.20;42.31
74334;BME280;62753;40.394;-80.022;2023-03-01T04:53:45;97243.21;;;7.32;41.44
74334;BME280;62753;40.394;-80.022;2023-03-01T04:56:12;97241.82;;;6.89;42.72
74334;BME280;62753;40.394;-80.022;2023-03-01T04:58:36;97242.44;;;7.56;40.82
74334;BME280;62753;40.394;-80.022;2023-03-01T05:01:07;97250.11;;;7.54;40.31
74334;BME280;62753;40.394;-80.022;2023-03-01T05:03:27;97243.76;;;8.32;39.17
74334;BME280;62753;40.394;-80.022;2023-03-01T05:05:53;97233.51;;;8.35;38.91
74334;BME280;62753;40.394;-80.022;2023-03-01T05:08:18;97231.23;;;7.65;39.52
74334;BME280;62753;40.394;-80.022;2023-03-01T05:10:44;97232.72;;;8.28;38.74
74334;BME280;62753;40.394;-80.022;2023-03-01T05:13:08;97230.63;;;8.18;39.00
74334;BME280;62753;40.394;-80.022;2023-03-01T05:15:34;97224.45;;;8.17;39.41
74334;BME280;62753;40.394;-80.022;2023-03-01T05:18:00;97222.90;;;7.82;39.53
74334;BME280;62753;40.394;-80.022;2023-03-01T05:20:25;97223.62;;;8.58;38.52
74334;BME280;62753;40.394;-80.022;2023-03-01T05:22:52;97222.94;;;8.69;38.51
74334;BME280;62753;40.394;-80.022;2023-03-01T05:25:16;97216.26;;;8.35;38.55
74334;BME280;62753;40.394;-80.022;2023-03-01T05:27:42;97219.64;;;8.43;38.64
74334;BME280;62753;40.394;-80.022;2023-03-01T05:30:09;97219.22;;;7.79;39.75
74334;BME280;62753;40.394;-80.022;2023-03-01T05:32:33;97217.83;;;8.00;39.48
74334;BME280;62753;40.394;-80.022;2023-03-01T05:34:58;97215.47;;;8.11;39.70
74334;BME280;62753;40.394;-80.022;2023-03-01T05:37:24;97222.28;;;7.72;40.30
74334;BME280;62753;40.394;-80.022;2023-03-01T05:39:50;97219.17;;;8.20;39.68
74334;BME280;62753;40.394;-80.022;2023-03-01T05:42:15;97218.75;;;7.95;39.92
74334;BME280;62753;40.394;-80.022;2023-03-01T05:44:41;97224.43;;;6.71;41.49
74334;BME280;62753;40.394;-80.022;2023-03-01T05:47:06;97229.32;;;7.50;41.57
74334;BME280;62753;40.394;-80.022;2023-03-01T05:49:32;97225.53;;;6.78;42.74
74334;BME280;62753;40.394;-80.022;2023-03-01T05:51:57;97221.20;;;6.93;41.49
74334;BME280;62753;40.394;-80.022;2023-03-01T05:54:23;97223.24;;;6.83;42.10
74334;BME280;62753;40.394;-80.022;2023-03-01T05:56:48;97220.24;;;6.60;42.23
74334;BME280;62753;40.394;-80.022;2023-03-01T05:59:14;97220.58;;;7.14;42.33
74334;BME280;62753;40.394;-80.022;2023-03-01T06:01:39;97216.07;;;7.16;41.65
74334;BME280;62753;40.394;-80.022;2023-03-01T06:04:05;97208.92;;;7.19;41.47
74334;BME280;62753;40.394;-80.022;2023-03-01T06:06:33;97208.41;;;7.40;41.32
74334;BME280;62753;40.394;-80.022;2023-03-01T06:08:55;97210.89;;;6.87;42.33
74334;BME280;62753;40.394;-80.022;2023-03-01T06:11:20;97206.75;;;6.91;42.95
74334;BME280;62753;40.394;-80.022;2023-03-01T06:13:46;97203.88;;;6.62;42.61
74334;BME280;62753;40.394;-80.022;2023-03-01T06:16:12;97196.53;;;6.19;43.28
74334;BME280;62753;40.394;-80.022;2023-03-01T06:18:37;97193.19;;;6.02;44.22
74334;BME280;62753;40.394;-80.022;2023-03-01T06:21:02;97193.33;;;6.39;44.04
74334;BME280;62753;40.394;-80.022;2023-03-01T06:23:28;97194.13;;;6.13;44.73
74334;BME280;62753;40.394;-80.022;2023-03-01T06:25:53;97190.07;;;5.47;46.25
74334;BME280;62753;40.394;-80.022;2023-03-01T06:28:18;97189.03;;;5.93;45.21
74334;BME280;62753;40.394;-80.022;2023-03-01T06:30:44;97187.82;;;6.27;44.63
74334;BME280;62753;40.394;-80.022;2023-03-01T06:33:09;97183.12;;;5.65;45.53
74334;BME280;62753;40.394;-80.022;2023-03-01T06:35:34;97183.87;;;6.06;44.89
74334;BME280;62753;40.394;-80.022;2023-03-01T06:38:02;97181.44;;;5.75;45.67
74334;BME280;62753;40.394;-80.022;2023-03-01T06:40:25;97184.31;;;5.52;45.61
74334;BME280;62753;40.394;-80.022;2023-03-01T06:42:51;97188.77;;;6.12;44.81
74334;BME280;62753;40.394;-80.022;2023-03-01T06:45:17;97190.93;;;6.11;44.42
74334;BME280;62753;40.394;-80.022;2023-03-01T06:47:41;97191.96;;;6.22;44.76
74334;BME280;62753;40.394;-80.022;2023-03-01T06:50:07;97189.23;;;5.71;45.06
74334;BME280;62753;40.394;-80.022;2023-03-01T06:52:32;97190.31;;;6.58;44.10
74334;BME280;62753;40.394;-80.022;2023-03-01T06:54:57;97194.58;;;6.60;43.42
74334;BME280;62753;40.394;-80.022;2023-03-01T06:57:23;97192.72;;;6.35;43.88
74334;BME280;62753;40.394;-80.022;2023-03-01T06:59:49;97191.17;;;6.26;43.90
74334;BME280;62753;40.394;-80.022;2023-03-01T07:02:14;97190.95;;;7.40;42.34
74334;BME280;62753;40.394;-80.022;2023-03-01T07:04:40;97188.45;;;6.15;43.86
74334;BME280;62753;40.394;-80.022;2023-03-01T07:07:05;97192.38;;;6.72;43.03
74334;BME280;62753;40.394;-80.022;2023-03-01T07:09:30;97184.77;;;6.26;43.92
74334;BME280;62753;40.394;-80.022;2023-03-01T07:11:56;97184.37;;;4.59;48.53
74334;BME280;62753;40.394;-80.022;2023-03-01T07:14:21;97177.28;;;4.59;48.85
74334;BME280;62753;40.394;-80.022;2023-03-01T07:16:46;97168.78;;;4.81;47.81
74334;BME280;62753;40.394;-80.022;2023-03-01T07:19:12;97160.38;;;5.36;46.77
74334;BME280;62753;40.394;-80.022;2023-03-01T07:21:38;97150.74;;;4.84;48.21
74334;BME280;62753;40.394;-80.022;2023-03-01T07:24:03;97144.42;;;5.25;47.00
74334;BME280;62753;40.394;-80.022;2023-03-01T07:26:28;97138.35;;;5.85;46.24
74334;BME280;62753;40.394;-80.022;2023-03-01T07:28:53;97132.93;;;5.33;47.61
74334;BME280;62753;40.394;-80.022;2023-03-01T07:31:19;97137.64;;;4.22;49.90
74334;BME280;62753;40.394;-80.022;2023-03-01T07:33:45;97141.77;;;3.91;49.72
74334;BME280;62753;40.394;-80.022;2023-03-01T07:36:09;97145.10;;;4.55;49.59
74334;BME280;62753;40.394;-80.022;2023-03-01T07:38:34;97146.59;;;5.26;48.02
74334;BME280;62753;40.394;-80.022;2023-03-01T07:41:02;97145.28;;;4.83;47.75
74334;BME280;62753;40.394;-80.022;2023-03-01T07:43:26;97135.08;;;5.29;46.82
74334;BME280;62753;40.394;-80.022;2023-03-01T07:45:51;97124.27;;;4.71;48.31
74334;BME280;62753;40.394;-80.022;2023-03-01T07:48:17;97121.17;;;4.92;48.93
74334;BME280;62753;40.394;-80.022;2023-03-01T07:50:45;97113.52;;;3.90;49.75
74334;BME280;62753;40.394;-80.022;2023-03-01T07:53:07;97108.65;;;4.41;49.54
74334;BME280;62753;40.394;-80.022;2023-03-01T07:55:33;97105.96;;;4.20;50.10
74334;BME280;62753;40.394;-80.022;2023-03-01T07:57:58;97112.09;;;5.06;48.85
74334;BME280;62753;40.394;-80.022;2023-03-01T08:00:23;97116.50;;;4.11;50.34
74334;BME280;62753;40.394;-80.022;2023-03-01T08:02:49;97115.67;;;4.04;50.23
74334;BME280;62753;40.394;-80.022;2023-03-01T08:05:14;97115.18;;;4.56;49.43
74334;BME280;62753;40.394;-80.022;2023-03-01T08:07:39;97112.15;;;4.17;51.09
74334;BME280;62753;40.394;-80.022;2023-03-01T08:10:05;97114.20;;;4.11;50.17
74334;BME280;62753;40.394;-80.022;2023-03-01T08:12:30;97111.59;;;5.20;47.95
74334;BME280;62753;40.394;-80.022;2023-03-01T08:14:55;97105.56;;;5.68;46.58
74334;BME280;62753;40.394;-80.022;2023-03-01T08:17:20;97105.89;;;5.65;45.58
74334;BME280;62753;40.394;-80.022;2023-03-01T08:19:46;97100.11;;;5.61;45.99
74334;BME280;62753;40.394;-80.022;2023-03-01T08:22:11;97096.32;;;5.57;45.84
74334;BME280;62753;40.394;-80.022;2023-03-01T08:24:37;97091.48;;;5.62;45.20
74334;BME280;62753;40.394;-80.022;2023-03-01T08:27:02;97090.34;;;5.79;45.04
74334;BME280;62753;40.394;-80.022;2023-03-01T08:29:30;97085.74;;;5.79;44.64
74334;BME280;62753;40.394;-80.022;2023-03-01T08:31:53;97074.07;;;5.97;44.97
74334;BME280;62753;40.394;-80.022;2023-03-01T08:34:19;97066.72;;;5.30;45.70
74334;BME280;62753;40.394;-80.022;2023-03-01T08:36:45;97061.93;;;5.11;46.55
74334;BME280;62753;40.394;-80.022;2023-03-01T08:39:11;97064.77;;;5.13;45.82
74334;BME280;62753;40.394;-80.022;2023-03-01T08:41:35;97064.79;;;5.73;44.90
74334;BME280;62753;40.394;-80.022;2023-03-01T08:44:00;97066.72;;;6.28;44.05
74334;BME280;62753;40.394;-80.022;2023-03-01T08:46:26;97070.56;;;5.83;43.95
74334;BME280;62753;40.394;-80.022;2023-03-01T08:48:50;97077.17;;;6.12;43.23
74334;BME280;62753;40.394;-80.022;2023-03-01T08:51:17;97067.16;;;5.19;45.10
74334;BME280;62753;40.394;-80.022;2023-03-01T08:53:41;97061.98;;;5.44;45.32
74334;BME280;62753;40.394;-80.022;2023-03-01T08:56:08;97057.37;;;5.07;46.22
74334;BME280;62753;40.394;-80.022;2023-03-01T08:58:33;97056.87;;;4.31;46.91
74334;BME280;62753;40.394;-80.022;2023-03-01T09:00:58;97053.56;;;5.03;46.45
74334;BME280;62753;40.394;-80.022;2023-03-01T09:03:23;97052.17;;;4.76;47.44
74334;BME280;62753;40.394;-80.022;2023-03-01T09:05:48;97041.74;;;4.87;47.01
74334;BME280;62753;40.394;-80.022;2023-03-01T09:08:13;97041.07;;;4.80;47.23
74334;BME280;62753;40.394;-80.022;2023-03-01T09:10:39;97043.64;;;4.62;47.87
74334;BME280;62753;40.394;-80.022;2023-03-01T09:13:04;97042.52;;;4.52;47.88
74334;BME280;62753;40.394;-80.022;2023-03-01T09:15:29;97036.69;;;4.34;48.64
74334;BME280;62753;40.394;-80.022;2023-03-01T09:17:55;97032.09;;;4.50;47.21
74334;BME280;62753;40.394;-80.022;2023-03-01T09:20:20;97033.50;;;4.38;48.10
74334;BME280;62753;40.394;-80.022;2023-03-01T09:22:45;97032.53;;;4.42;47.69
74334;BME280;62753;40.394;-80.022;2023-03-01T09:25:10;97028.04;;;5.13;46.90
74334;BME280;62753;40.394;-80.022;2023-03-01T09:27:36;97028.76;;;5.80;45.39
74334;BME280;62753;40.394;-80.022;2023-03-01T09:30:01;97025.86;;;4.71;46.67
74334;BME280;62753;40.394;-80.022;2023-03-01T09:32:27;97026.27;;;4.43;47.37
74334;BME280;62753;40.394;-80.022;2023-03-01T09:34:52;97019.10;;;4.84;47.56
74334;BME280;62753;40.394;-80.022;2023-03-01T09:37:17;97018.76;;;5.14;46.27
74334;BME280;62753;40.394;-80.022;2023-03-01T09:39:43;97014.79;;;4.85;46.26
74334;BME280;62753;40.394;-80.022;2023-03-01T09:42:12;97008.87;;;4.60;47.21
74334;BME280;62753;40.394;-80.022;2023-03-01T09:44:40;97001.70;;;4.50;47.13
74334;BME280;62753;40.394;-80.022;2023-03-01T09:46:59;96995.74;;;4.63;47.51
74334;BME280;62753;40.394;-80.022;2023-03-01T09:49:26;96991.85;;;4.92;46.94
74334;BME280;62753;40.394;-80.022;2023-03-01T09:51:57;96989.94;;;4.90;46.14
74334;BME280;62753;40.394;-80.022;2023-03-01T09:54:14;96991.87;;;5.29;46.06
74334;BME280;62753;40.394;-80.022;2023-03-01T09:56:44;96991.98;;;4.73;46.70
74334;BME280;62753;40.394;-80.022;2023-03-01T09:59:15;96993.95;;;4.06;48.90
74334;BME280;62753;40.394;-80.022;2023-03-01T10:01:33;96996.22;;;3.55;49.67
74334;BME280;62753;40.394;-80.022;2023-03-01T10:04:05;96992.56;;;4.19;49.53
74334;BME280;62753;40.394;-80.022;2023-03-01T10:06:22;96984.88;;;4.43;48.63
74334;BME280;62753;40.394;-80.022;2023-03-01T10:08:50;96982.17;;;3.51;50.09
74334;BME280;62753;40.394;-80.022;2023-03-01T10:11:21;96982.07;;;3.85;49.22
74334;BME280;62753;40.394;-80.022;2023-03-01T10:13:45;96981.15;;;4.31;49.19
74334;BME280;62753;40.394;-80.022;2023-03-01T10:16:09;96978.25;;;4.40;48.62
74334;BME280;62753;40.394;-80.022;2023-03-01T10:18:30;96971.21;;;4.25;48.97
74334;BME280;62753;40.394;-80.022;2023-03-01T10:20:57;96967.68;;;4.48;48.65
74334;BME280;62753;40.394;-80.022;2023-03-01T10:23:19;96969.00;;;4.14;49.06
74334;BME280;62753;40.394;-80.022;2023-03-01T10:25:52;96972.26;;;3.34;49.99
74334;BME280;62753;40.394;-80.022;2023-03-01T10:28:17;96964.83;;;3.23;51.70
74334;BME280;62753;40.394;-80.022;2023-03-01T10:30:37;96962.79;;;2.54;52.87
74334;BME280;62753;40.394;-80.022;2023-03-01T10:33:01;96964.09;;;3.20;51.98
74334;BME280;62753;40.394;-80.022;2023-03-01T10:35:29;96971.11;;;3.02;52.23
74334;BME280;62753;40.394;-80.022;2023-03-01T10:38:02;96968.65;;;3.18;52.54
74334;BME280;62753;40.394;-80.022;2023-03-01T10:40:18;96959.51;;;3.68;50.02
74334;BME280;62753;40.394;-80.022;2023-03-01T10:42:48;96948.05;;;3.62;50.03
74334;BME280;62753;40.394;-80.022;2023-03-01T10:45:17;96948.76;;;4.20;48.98
74334;BME280;62753;40.394;-80.022;2023-03-01T10:47:34;96940.97;;;4.40;47.16
74334;BME280;62753;40.394;-80.022;2023-03-01T10:50:02;96935.57;;;5.19;45.91
74334;BME280;62753;40.394;-80.022;2023-03-01T10:52:30;96929.80;;;4.82;45.86
74334;BME280;62753;40.394;-80.022;2023-03-01T10:54:54;96920.70;;;4.36;47.32
74334;BME280;62753;40.394;-80.022;2023-03-01T10:57:27;96915.29;;;4.82;46.42
74334;BME280;62753;40.394;-80.022;2023-03-01T10:59:43;96912.17;;;4.85;45.72
74334;BME280;62753;40.394;-80.022;2023-03-01T11:02:16;96909.04;;;4.47;46.28
74334;BME280;62753;40.394;-80.022;2023-03-01T11:04:34;96899.91;;;4.03;48.56
74334;BME280;62753;40.394;-80.022;2023-03-01T11:07:00;96900.45;;;3.05;50.80
74334;BME280;62753;40.394;-80.022;2023-03-01T11:09:24;96884.89;;;3.27;50.67
74334;BME280;62753;40.394;-80.022;2023-03-01T11:11:53;96880.23;;;3.92;49.59
74334;BME280;62753;40.394;-80.022;2023-03-01T11:14:17;96874.43;;;2.77;51.11
74334;BME280;62753;40.394;-80.022;2023-03-01T11:16:44;96862.50;;;3.94;49.66
74334;BME280;62753;40.394;-80.022;2023-03-01T11:19:17;96864.44;;;3.88;48.94
74334;BME280;62753;40.394;-80.022;2023-03-01T11:21:33;96860.66;;;3.36;50.82
74334;BME280;62753;40.394;-80.022;2023-03-01T11:23:58;96861.93;;;2.21;53.39
74334;BME280;62753;40.394;-80.022;2023-03-01T11:26:22;96859.98;;;2.71;53.52
74334;BME280;62753;40.394;-80.022;2023-03-01T11:28:50;96858.16;;;2.11;55.16
74334;BME280;62753;40.394;-80.022;2023-03-01T11:31:13;96852.35;;;1.04;58.30
74334;BME280;62753;40.394;-80.022;2023-03-01T11:33:43;96849.65;;;0.93;59.61
74334;BME280;62753;40.394;-80.022;2023-03-01T11:36:06;96841.26;;;0.84;59.01
74334;BME280;62753;40.394;-80.022;2023-03-01T11:38:30;96833.89;;;0.61;60.58
74334;BME280;62753;40.394;-80.022;2023-03-01T11:40:57;96842.68;;;0.94;59.77
74334;BME280;62753;40.394;-80.022;2023-03-01T11:43:23;96839.13;;;1.67;57.42
74334;BME280;62753;40.394;-80.022;2023-03-01T11:45:53;96848.49;;;1.02;59.16
74334;BME280;62753;40.394;-80.022;2023-03-01T11:50:41;96844.98;;;0.80;60.33
74334;BME280;62753;40.394;-80.022;2023-03-01T11:53:09;96847.88;;;1.16;59.19
74334;BME280;62753;40.394;-80.022;2023-03-01T11:55:32;96840.73;;;1.19;59.50
74334;BME280;62753;40.394;-80.022;2023-03-01T11:58:02;96831.94;;;1.65;57.87
74334;BME280;62753;40.394;-80.022;2023-03-01T12:00:24;96836.39;;;1.83;58.81
74334;BME280;62753;40.394;-80.022;2023-03-01T12:02:53;96826.41;;;1.05;59.97
74334;BME280;62753;40.394;-80.022;2023-03-01T12:05:20;96823.18;;;1.56;60.48
74334;BME280;62753;40.394;-80.022;2023-03-01T12:07:38;96823.44;;;2.79;56.68
74334;BME280;62753;40.394;-80.022;2023-03-01T12:12:30;96823.61;;;2.42;56.81
74334;BME280;62753;40.394;-80.022;2023-03-01T12:14:58;96820.84;;;2.30;56.82
74334;BME280;62753;40.394;-80.022;2023-03-01T12:17:24;96818.33;;;2.13;57.67
74334;BME280;62753;40.394;-80.022;2023-03-01T12:19:49;96813.59;;;2.15;58.10
74334;BME280;62753;40.394;-80.022;2023-03-01T12:22:16;96813.13;;;2.37;56.78
74334;BME280;62753;40.394;-80.022;2023-03-01T12:24:41;96810.60;;;2.39;56.84
74334;BME280;62753;40.394;-80.022;2023-03-01T12:27:10;96808.47;;;2.25;57.40
74334;BME280;62753;40.394;-80.022;2023-03-01T12:29:24;96809.42;;;2.81;57.27
74334;BME280;62753;40.394;-80.022;2023-03-01T12:32:01;96811.17;;;3.14;56.04
74334;BME280;62753;40.394;-80.022;2023-03-01T12:34:21;96810.58;;;1.86;58.96
74334;BME280;62753;40.394;-80.022;2023-03-01T12:39:14;96797.03;;;2.99;55.96
74334;BME280;62753;40.394;-80.022;2023-03-01T12:41:37;96789.59;;;3.41;54.76
74334;BME280;62753;40.394;-80.022;2023-03-01T12:44:03;96786.47;;;2.53;56.19